TimeEDT,TemperatureF,Dew PointF,Humidity,Sea Level PressureIn,VisibilityMPH,Wind Direction,Wind SpeedMPH,Gust SpeedMPH,PrecipitationIn,Events,Conditions,WindDirDegrees,DateUTC
12:53 AM,41.0,37.9,89,29.94,2.0,NE,10.4,-,N/A,,Overcast,50,2013-04-11 04:53:00
1:25 AM,41.0,37.4,87,29.95,3.0,NE,12.7,-,N/A,,Overcast,40,2013-04-11 05:25:00
1:34 AM,41.0,37.4,87,29.94,2.5,NE,11.5,17.3,N/A,,Overcast,50,2013-04-11 05:34:00
1:53 AM,42.1,37.9,85,29.94,3.0,NE,13.8,-,N/A,,Overcast,50,2013-04-11 05:53:00
2:53 AM,42.1,37.9,85,29.93,4.0,ENE,11.5,-,0.04,Rain,Light Rain,60,2013-04-11 06:53:00
3:53 AM,42.1,37.9,85,29.90,3.0,ENE,9.2,-,0.07,Rain,Rain,60,2013-04-11 07:53:00
4:15 AM,42.8,37.4,81,29.88,2.0,NE,13.8,-,0.10,Rain,Heavy Rain,50,2013-04-11 08:15:00
4:30 AM,42.8,37.4,81,29.86,1.8,NNE,16.1,-,0.19,Rain,Heavy Rain,30,2013-04-11 08:30:00
4:37 AM,42.8,37.4,81,29.90,2.5,NNE,11.5,-,0.22,Rain,Heavy Rain,30,2013-04-11 08:37:00
4:45 AM,42.8,37.4,81,29.90,1.8,NNE,15.0,-,0.31,Rain-Thunderstorm,Heavy Thunderstorms and Rain,30,2013-04-11 08:45:00
4:53 AM,42.1,37.9,85,29.88,1.8,NE,16.1,-,0.40,Rain-Thunderstorm,Heavy Thunderstorms and Rain,40,2013-04-11 08:53:00
5:02 AM,42.8,37.4,81,29.89,2.0,ENE,16.1,-,0.06,Rain-Thunderstorm,Heavy Thunderstorms and Rain,60,2013-04-11 09:02:00
5:26 AM,41.0,37.4,87,29.91,1.5,NE,12.7,-,0.29,Rain-Thunderstorm,Heavy Thunderstorms and Rain,50,2013-04-11 09:26:00
5:33 AM,41.0,37.4,87,29.91,2.0,NE,8.1,-,0.33,Rain,Heavy Rain,50,2013-04-11 09:33:00
5:45 AM,41.0,37.4,87,29.90,4.0,ENE,10.4,-,0.36,Rain,Rain,60,2013-04-11 09:45:00
5:53 AM,41.0,37.0,86,29.90,4.0,ENE,11.5,-,0.37,Rain,Rain,60,2013-04-11 09:53:00
6:01 AM,41.0,37.4,87,29.89,4.0,East,10.4,-,0.02,Rain,Rain,80,2013-04-11 10:01:00
6:12 AM,41.0,37.4,87,29.90,5.0,East,9.2,-,0.03,Rain,Light Rain,100,2013-04-11 10:12:00
6:20 AM,41.0,37.4,87,29.88,5.0,East,11.5,-,0.05,Rain,Rain,80,2013-04-11 10:20:00
6:53 AM,41.0,37.0,86,29.89,7.0,East,11.5,-,0.08,Rain,Light Rain,80,2013-04-11 10:53:00
7:53 AM,42.1,37.0,82,29.95,9.0,NE,10.4,-,0.02,,Overcast,40,2013-04-11 11:53:00
8:53 AM,41.0,37.0,86,29.91,10.0,ENE,17.3,23.0,N/A,,Overcast,60,2013-04-11 12:53:00
9:53 AM,42.1,36.0,79,29.91,4.0,ENE,12.7,27.6,0.00,Rain,Light Rain,70,2013-04-11 13:53:00
10:43 AM,41.0,35.6,81,29.89,2.5,ENE,17.3,23.0,0.00,Rain,Light Rain,70,2013-04-11 14:43:00
10:53 AM,41.0,36.0,82,29.91,4.0,East,19.6,26.5,0.00,,Haze,80,2013-04-11 14:53:00
11:53 AM,39.9,35.1,83,29.91,5.0,ENE,20.7,26.5,N/A,,Haze,60,2013-04-11 15:53:00
1:14 PM,39.2,35.6,87,29.88,2.5,ENE,17.3,27.6,0.01,Rain,Light Rain,60,2013-04-11 17:14:00
1:21 PM,39.2,35.6,87,29.88,5.0,ENE,18.4,24.2,0.01,Rain,Light Rain,70,2013-04-11 17:21:00
1:53 PM,39.0,34.0,82,29.89,10.0,ENE,16.1,26.5,0.01,,Overcast,70,2013-04-11 17:53:00
2:53 PM,39.0,34.0,82,29.86,6.0,East,16.1,26.5,0.02,Rain,Light Rain,80,2013-04-11 18:53:00
3:53 PM,39.9,35.1,83,29.83,9.0,East,15.0,-,0.00,,Overcast,80,2013-04-11 19:53:00
4:53 PM,39.9,35.1,83,29.82,7.0,East,11.5,-,N/A,,Overcast,90,2013-04-11 20:53:00
5:53 PM,41.0,35.1,79,29.81,9.0,East,15.0,23.0,N/A,,Overcast,80,2013-04-11 21:53:00
6:53 PM,39.9,35.1,83,29.79,10.0,East,19.6,26.5,0.00,,Overcast,80,2013-04-11 22:53:00
7:53 PM,39.9,35.1,83,29.76,7.0,East,12.7,-,0.01,Rain,Light Rain,80,2013-04-11 23:53:00
8:53 PM,39.9,35.1,83,29.74,6.0,ENE,16.1,20.7,0.02,Rain,Light Rain,70,2013-04-12 00:53:00
9:53 PM,39.9,36.0,86,29.73,5.0,ENE,10.4,-,0.09,Rain,Light Rain,70,2013-04-12 01:53:00
10:53 PM,39.9,35.1,83,29.67,4.0,East,19.6,26.5,0.12,Rain,Rain,80,2013-04-12 02:53:00
11:53 PM,39.9,35.1,83,29.63,10.0,East,12.7,20.7,0.10,,Overcast,80,2013-04-12 03:53:00